Preview of NWS' New Version of Forecast
This preview is not operational and should not be used for support decisions.

Terminal Aerodrome Forecast (TAF)

Issued by National Weather Service (NWS)

                            
749 
FTUS42 KMFL 201928 AAA
TAFMIA
TAF AMD
KMIA 201928Z 2019/2124 10015KT P6SM VCSH SCT025 BKN070
     FM210000 10011KT P6SM FEW025 SCT050
     FM211400 11015G24KT P6SM SCT025 BKN050=